Time;durP1;ratioP1;P1;durP2;ratioP2;P2;SDS_P1;SDS_P2;PMS_P1;PMS_P2;Temp;Humidity;BMP_temperature;BMP_pressure;BME280_temperature;BME280_humidity;BME280_pressure;Samples;Min_cycle;Max_cycle;Signal;HPM_P1;HPM_P2
2023/04/21 00:00:01;;;;;;;118.78;43.92;;;;;;;7.85;100.00;101558.00;5001735;28;20164;-71
2023/04/21 00:02:27;;;;;;;157.25;49.35;;;;;;;7.81;100.00;101561.69;5010945;28;20036;-71
2023/04/21 00:04:55;;;;;;;132.32;49.95;;;;;;;7.72;100.00;101553.16;5022320;28;20085;-71
2023/04/21 00:07:21;;;;;;;138.77;51.38;;;;;;;7.77;100.00;101558.28;5022704;28;20129;-71
2023/04/21 00:09:47;;;;;;;111.60;44.97;;;;;;;7.77;100.00;101553.84;5013787;28;20029;-72
2023/04/21 00:12:12;;;;;;;137.25;48.75;;;;;;;7.67;100.00;101551.59;5001454;28;20038;-71
2023/04/21 00:14:38;;;;;;;165.65;54.42;;;;;;;7.77;100.00;101550.31;5021234;28;20037;-70
2023/04/21 00:17:04;;;;;;;184.10;58.17;;;;;;;7.70;100.00;101548.84;5028299;28;20036;-70
2023/04/21 00:19:30;;;;;;;142.52;51.75;;;;;;;7.76;100.00;101541.50;5016428;28;20041;-72
2023/04/21 00:21:57;;;;;;;164.88;55.25;;;;;;;7.58;100.00;101538.69;5022159;28;20489;-69
2023/04/21 00:24:24;;;;;;;164.63;56.95;;;;;;;7.56;100.00;101538.78;5025609;28;20049;-70
2023/04/21 00:26:49;;;;;;;202.43;64.47;;;;;;;7.71;100.00;101542.59;5025986;28;20042;-71
2023/04/21 00:29:16;;;;;;;191.85;60.10;;;;;;;7.72;100.00;101533.72;5026132;28;20044;-72
2023/04/21 00:31:41;;;;;;;222.70;62.45;;;;;;;7.83;100.00;101534.16;5000695;28;20034;-71
2023/04/21 00:34:07;;;;;;;212.43;62.00;;;;;;;7.76;100.00;101533.53;5023053;28;20112;-71
2023/04/21 00:36:32;;;;;;;213.02;62.08;;;;;;;7.82;100.00;101531.56;5030877;28;20033;-71
2023/04/21 00:38:58;;;;;;;247.27;67.10;;;;;;;7.87;100.00;101530.44;5012784;28;20037;-72
2023/04/21 00:41:23;;;;;;;261.58;71.47;;;;;;;7.89;100.00;101525.94;5022615;28;20050;-71
2023/04/21 00:44:03;;;;;;;322.55;74.20;;;;;;;7.75;100.00;101523.84;5021745;28;20045;-71
2023/04/21 00:46:30;;;;;;;254.73;68.93;;;;;;;7.95;100.00;101525.69;5014910;28;20900;-71
2023/04/21 00:48:57;;;;;;;257.70;69.40;;;;;;;7.97;100.00;101518.50;5022709;28;21456;-71
2023/04/21 00:51:23;;;;;;;324.27;76.90;;;;;;;7.96;100.00;101510.59;5014749;28;20033;-71
2023/04/21 00:53:50;;;;;;;393.73;87.20;;;;;;;7.78;100.00;101502.50;5008945;28;20115;-71
2023/04/21 00:56:17;;;;;;;372.73;81.80;;;;;;;8.06;100.00;101496.00;5015926;28;20291;-71
2023/04/21 00:58:44;;;;;;;285.02;72.18;;;;;;;7.85;100.00;101497.78;4994081;28;20070;-71
2023/04/21 01:01:11;;;;;;;294.40;74.57;;;;;;;7.92;100.00;101493.94;5017560;28;20145;-71
2023/04/21 01:03:36;;;;;;;318.15;73.15;;;;;;;8.07;100.00;101486.25;5028416;28;20055;-71
2023/04/21 01:06:02;;;;;;;323.30;78.18;;;;;;;8.01;100.00;101490.03;4990477;28;20041;-71
2023/04/21 01:08:28;;;;;;;238.77;65.13;;;;;;;7.83;100.00;101485.47;4996382;28;20278;-71
2023/04/21 01:10:53;;;;;;;307.27;73.13;;;;;;;7.77;100.00;101487.47;5020435;28;20921;-71
2023/04/21 01:13:21;;;;;;;243.70;67.85;;;;;;;7.81;100.00;101477.59;5029051;28;20041;-71
2023/04/21 01:15:47;;;;;;;311.75;75.75;;;;;;;8.02;100.00;101479.34;5009417;28;20040;-71
2023/04/21 01:18:13;;;;;;;238.75;65.57;;;;;;;8.09;100.00;101484.41;5007604;28;20037;-71
2023/04/21 01:20:39;;;;;;;241.27;67.70;;;;;;;7.99;100.00;101483.94;5022087;28;20034;-71
2023/04/21 01:23:06;;;;;;;302.65;76.82;;;;;;;8.03;100.00;101480.19;5025114;28;20076;-71
2023/04/21 01:25:31;;;;;;;278.95;71.18;;;;;;;8.03;100.00;101482.84;5025901;28;20089;-71
2023/04/21 01:27:57;;;;;;;397.23;87.05;;;;;;;8.27;100.00;101480.94;5027577;28;20037;-71
2023/04/21 01:30:23;;;;;;;236.90;69.63;;;;;;;8.34;100.00;101477.09;4995443;28;20030;-71
2023/04/21 01:32:50;;;;;;;390.45;92.57;;;;;;;8.47;100.00;101485.41;5031620;28;20219;-72
2023/04/21 01:35:15;;;;;;;302.05;81.05;;;;;;;8.50;100.00;101485.28;5023886;28;20034;-71
2023/04/21 01:37:40;;;;;;;320.45;77.40;;;;;;;8.54;100.00;101489.53;5020151;28;22898;-72
2023/04/21 01:40:08;;;;;;;488.48;105.53;;;;;;;8.44;100.00;101483.78;5006748;28;20042;-71
2023/04/21 01:42:36;;;;;;;490.63;103.03;;;;;;;8.57;100.00;101492.91;5020396;28;20037;-72
2023/04/21 01:45:02;;;;;;;404.67;90.57;;;;;;;8.65;100.00;101489.91;5019919;28;20048;-72
2023/04/21 01:47:27;;;;;;;382.52;88.35;;;;;;;8.66;100.00;101483.66;5028839;28;20040;-71
2023/04/21 01:49:53;;;;;;;272.38;70.38;;;;;;;8.72;100.00;101474.53;5021669;28;20445;-72
2023/04/21 01:52:18;;;;;;;441.08;91.25;;;;;;;8.67;100.00;101484.53;5001083;28;20033;-71
2023/04/21 01:54:45;;;;;;;291.15;75.57;;;;;;;8.52;100.00;101478.97;5001970;28;20045;-70
2023/04/21 01:57:10;;;;;;;303.50;76.15;;;;;;;8.62;100.00;101474.09;5014735;28;20141;-71
2023/04/21 01:59:36;;;;;;;268.63;71.15;;;;;;;8.65;100.00;101466.00;5019488;28;20026;-71
2023/04/21 02:02:02;;;;;;;353.73;86.57;;;;;;;8.71;100.00;101468.38;5010318;28;20132;-71
2023/04/21 02:04:28;;;;;;;574.50;110.15;;;;;;;8.68;100.00;101465.84;5024105;28;20042;-71
2023/04/21 02:06:53;;;;;;;438.48;102.43;;;;;;;8.73;100.00;101470.94;5016675;28;20034;-71
2023/04/21 02:09:19;;;;;;;492.17;102.90;;;;;;;8.74;100.00;101462.06;5015216;28;20044;-71
2023/04/21 02:11:44;;;;;;;314.65;75.88;;;;;;;8.72;100.00;101458.59;5006704;28;20038;-71
2023/04/21 02:14:10;;;;;;;247.38;70.63;;;;;;;8.57;100.00;101470.78;4997887;28;20030;-71
2023/04/21 02:16:36;;;;;;;347.00;82.85;;;;;;;8.46;100.00;101468.59;4994648;28;20040;-71
2023/04/21 02:19:04;;;;;;;349.40;84.95;;;;;;;8.56;100.00;101471.72;5029968;28;20029;-71
2023/04/21 02:21:31;;;;;;;424.10;97.00;;;;;;;8.64;100.00;101474.03;5008861;28;20502;-71
2023/04/21 02:23:57;;;;;;;357.23;82.13;;;;;;;8.59;100.00;101468.94;5009227;28;20038;-71
2023/04/21 02:26:25;;;;;;;347.92;83.38;;;;;;;8.64;100.00;101464.28;4996898;28;20041;-72
2023/04/21 02:28:50;;;;;;;359.63;78.78;;;;;;;8.49;100.00;101460.50;4994681;28;20928;-71
2023/04/21 02:31:17;;;;;;;351.40;82.90;;;;;;;8.23;100.00;101452.78;5005622;28;20896;-71
2023/04/21 02:33:43;;;;;;;384.58;86.18;;;;;;;8.14;100.00;101446.09;5023484;28;20037;-71
2023/04/21 02:36:10;;;;;;;469.83;96.75;;;;;;;8.03;100.00;101445.66;5011200;28;20029;-71
2023/04/21 02:38:35;;;;;;;390.92;90.28;;;;;;;7.96;100.00;101455.69;5028063;28;20041;-72
2023/04/21 02:41:01;;;;;;;341.25;81.43;;;;;;;7.85;100.00;101457.94;4987655;28;20038;-71
2023/04/21 02:43:26;;;;;;;319.45;81.55;;;;;;;7.75;100.00;101452.16;5010845;28;20045;-71
2023/04/21 02:45:54;;;;;;;345.92;84.70;;;;;;;7.81;100.00;101459.00;5010748;28;20049;-72
2023/04/21 02:48:21;;;;;;;311.08;78.18;;;;;;;7.90;100.00;101455.09;5026255;28;20045;-71
2023/04/21 02:50:52;;;;;;;264.75;78.32;;;;;;;8.12;100.00;101453.25;5004496;28;20117;-71
2023/04/21 02:53:18;;;;;;;316.13;82.93;;;;;;;8.13;100.00;101462.06;5003366;28;20044;-71
2023/04/21 02:55:44;;;;;;;276.10;77.43;;;;;;;7.97;100.00;101444.13;5014580;28;20042;-71
2023/04/21 02:58:10;;;;;;;302.20;78.65;;;;;;;8.22;100.00;101454.56;5020945;28;20046;-71
2023/04/21 03:00:35;;;;;;;326.83;86.22;;;;;;;8.22;100.00;101451.06;5006371;28;20030;-71
2023/04/21 03:03:02;;;;;;;396.00;91.88;;;;;;;8.28;100.00;101446.34;5006821;28;20081;-72
2023/04/21 03:05:28;;;;;;;271.58;78.53;;;;;;;8.14;100.00;101456.72;5020139;28;20099;-71
2023/04/21 03:07:53;;;;;;;260.27;76.97;;;;;;;8.18;100.00;101449.44;5019832;28;20104;-72
2023/04/21 03:10:19;;;;;;;324.50;82.30;;;;;;;8.20;100.00;101452.91;5026381;28;20088;-71
2023/04/21 03:12:45;;;;;;;369.27;84.15;;;;;;;8.23;100.00;101453.66;5010175;28;20076;-72
2023/04/21 03:15:11;;;;;;;281.92;76.05;;;;;;;8.19;100.00;101449.41;5011192;28;20092;-72
2023/04/21 03:17:37;;;;;;;240.98;73.20;;;;;;;8.25;100.00;101446.47;4981254;28;20040;-71
2023/04/21 03:20:07;;;;;;;280.98;79.90;;;;;;;8.19;100.00;101445.88;5006562;28;20053;-72
2023/04/21 03:22:35;;;;;;;361.58;88.53;;;;;;;8.18;100.00;101447.69;5023091;28;20060;-72
2023/04/21 03:25:01;;;;;;;275.88;79.32;;;;;;;8.00;100.00;101449.34;5016143;28;20042;-72
2023/04/21 03:27:27;;;;;;;279.02;77.30;;;;;;;8.11;100.00;101445.34;5025907;28;20920;-71
2023/04/21 03:29:52;;;;;;;231.27;76.40;;;;;;;8.06;100.00;101437.56;5028782;28;20033;-71
2023/04/21 03:32:18;;;;;;;327.92;81.28;;;;;;;8.13;100.00;101441.69;5027222;28;20486;-72
2023/04/21 03:34:43;;;;;;;213.35;71.28;;;;;;;8.02;100.00;101439.50;5025707;28;20245;-71
2023/04/21 03:37:09;;;;;;;244.48;74.60;;;;;;;8.06;100.00;101437.56;4997404;28;20115;-71
2023/04/21 03:39:35;;;;;;;241.20;72.60;;;;;;;8.00;100.00;101445.81;5020778;28;20066;-71
2023/04/21 03:42:00;;;;;;;320.88;85.30;;;;;;;8.02;100.00;101439.50;5001523;28;20057;-71
2023/04/21 03:44:28;;;;;;;233.43;71.28;;;;;;;7.98;100.00;101447.66;5007797;28;20061;-72
2023/04/21 03:46:54;;;;;;;213.90;72.70;;;;;;;7.97;100.00;101441.47;5019341;28;20042;-71
2023/04/21 03:49:21;;;;;;;238.05;72.65;;;;;;;8.09;100.00;101444.56;4998678;28;20128;-71
2023/04/21 03:51:46;;;;;;;225.52;75.00;;;;;;;8.01;100.00;101447.53;5012910;28;20030;-71
2023/04/21 03:54:12;;;;;;;294.60;81.35;;;;;;;8.22;100.00;101451.06;5006458;28;20038;-70
2023/04/21 03:56:40;;;;;;;277.67;79.47;;;;;;;8.13;100.00;101435.50;5000638;28;20093;-72
2023/04/21 03:59:06;;;;;;;394.13;90.60;;;;;;;8.28;100.00;101441.03;5030498;28;20041;-73
2023/04/21 04:01:33;;;;;;;291.45;81.78;;;;;;;8.19;100.00;101441.44;5017527;28;20734;-72
2023/04/21 04:03:58;;;;;;;253.82;76.63;;;;;;;8.06;100.00;101434.91;5018886;28;20125;-72
2023/04/21 04:06:24;;;;;;;264.10;79.38;;;;;;;7.95;100.00;101430.06;5018815;28;20026;-72
2023/04/21 04:08:49;;;;;;;254.38;78.13;;;;;;;8.05;100.00;101430.53;5023146;28;20045;-72
2023/04/21 04:11:15;;;;;;;249.65;77.85;;;;;;;8.00;100.00;101427.22;5023853;28;20034;-72
2023/04/21 04:13:40;;;;;;;305.27;84.00;;;;;;;8.01;100.00;101435.13;5007808;28;20040;-72
2023/04/21 04:16:06;;;;;;;295.45;84.68;;;;;;;8.16;100.00;101443.34;5001210;28;20045;-72
2023/04/21 04:18:32;;;;;;;284.60;80.57;;;;;;;8.17;100.00;101445.94;5029613;28;20038;-72
2023/04/21 04:20:57;;;;;;;325.33;87.20;;;;;;;8.27;100.00;101426.00;5005729;28;20458;-72
2023/04/21 04:23:23;;;;;;;296.08;82.57;;;;;;;8.17;100.00;101426.47;5019927;28;20487;-72
2023/04/21 04:25:50;;;;;;;286.83;80.85;;;;;;;8.08;100.00;101419.75;5021912;28;20037;-72
2023/04/21 04:28:16;;;;;;;256.88;76.85;;;;;;;8.03;100.00;101427.06;5019689;28;20141;-72
2023/04/21 04:30:42;;;;;;;208.27;70.35;;;;;;;7.94;100.00;101417.72;5014314;28;20038;-72
2023/04/21 04:33:08;;;;;;;231.57;75.75;;;;;;;7.98;100.00;101431.72;5011654;28;20030;-72
2023/04/21 04:35:34;;;;;;;223.90;72.88;;;;;;;8.01;100.00;101421.84;5022950;28;20033;-72
2023/04/21 04:37:59;;;;;;;205.75;74.03;;;;;;;7.99;100.00;101420.19;5017624;28;20046;-72
2023/04/21 04:40:25;;;;;;;192.27;71.32;;;;;;;7.96;100.00;101422.97;5020101;28;20029;-72
2023/04/21 04:42:51;;;;;;;196.75;67.07;;;;;;;8.05;100.00;101427.88;5020236;28;20038;-72
2023/04/21 04:45:20;;;;;;;199.30;69.93;;;;;;;7.93;100.00;101426.63;5024561;28;20064;-72
2023/04/21 04:47:47;;;;;;;244.73;79.40;;;;;;;8.02;100.00;101420.03;5018403;28;20149;-72
2023/04/21 04:50:12;;;;;;;208.20;70.07;;;;;;;7.98;100.00;101424.66;5014789;28;20038;-72
2023/04/21 04:52:38;;;;;;;207.93;71.07;;;;;;;7.97;100.00;101430.88;5014236;28;20034;-72
2023/04/21 04:55:03;;;;;;;225.23;72.88;;;;;;;7.99;100.00;101430.81;5024614;28;20849;-72
2023/04/21 04:57:30;;;;;;;200.02;69.43;;;;;;;8.05;100.00;101419.91;5022115;28;20041;-72
2023/04/21 04:59:55;;;;;;;240.75;77.72;;;;;;;7.93;100.00;101425.75;5014597;28;20117;-72
2023/04/21 05:02:22;;;;;;;223.10;74.47;;;;;;;8.03;100.00;101427.06;5016964;28;20092;-71
2023/04/21 05:04:49;;;;;;;250.52;77.50;;;;;;;8.06;100.00;101418.97;5021118;28;20052;-71
2023/04/21 05:07:15;;;;;;;247.98;77.28;;;;;;;8.04;100.00;101413.75;5022672;28;20162;-71
2023/04/21 05:09:40;;;;;;;244.75;78.97;;;;;;;8.09;100.00;101420.66;4978601;28;20656;-71
2023/04/21 05:12:06;;;;;;;228.05;75.70;;;;;;;8.04;100.00;101423.50;5022105;28;20151;-71
2023/04/21 05:14:32;;;;;;;261.50;79.38;;;;;;;8.06;100.00;101437.56;5024206;28;20044;-71
2023/04/21 05:16:57;;;;;;;191.52;66.00;;;;;;;8.18;100.00;101446.78;5024020;28;20038;-71
2023/04/21 05:19:23;;;;;;;213.48;73.70;;;;;;;8.16;100.00;101441.56;5001486;28;20489;-71
2023/04/21 05:21:48;;;;;;;211.05;74.22;;;;;;;8.23;100.00;101450.13;5019509;28;20044;-71
2023/04/21 05:24:14;;;;;;;200.43;67.10;;;;;;;8.36;100.00;101450.44;5017056;28;20881;-71
2023/04/21 05:26:39;;;;;;;211.18;69.20;;;;;;;8.39;100.00;101448.56;5001581;28;20038;-71
2023/04/21 05:29:05;;;;;;;185.15;68.15;;;;;;;8.33;100.00;101451.44;5016580;28;20121;-71
2023/04/21 05:31:31;;;;;;;184.18;67.07;;;;;;;8.32;100.00;101455.03;5019096;28;20046;-71
2023/04/21 05:33:57;;;;;;;186.32;66.38;;;;;;;8.34;100.00;101453.19;5025111;28;20033;-71
2023/04/21 05:36:23;;;;;;;202.75;71.20;;;;;;;8.42;100.00;101455.53;5024469;28;24807;-71
2023/04/21 05:38:49;;;;;;;224.48;71.60;;;;;;;8.54;100.00;101455.84;5005284;28;20225;-71
2023/04/21 05:41:15;;;;;;;196.48;67.57;;;;;;;8.43;100.00;101458.09;5010464;28;20850;-71
2023/04/21 05:43:40;;;;;;;187.13;66.80;;;;;;;8.40;100.00;101454.75;5008425;28;20865;-71
2023/04/21 05:46:12;;;;;;;184.30;67.65;;;;;;;8.48;100.00;101441.94;5022967;28;20586;-71
2023/04/21 05:48:39;;;;;;;172.23;64.97;;;;;;;8.55;100.00;101446.94;5012745;28;20043;-71
2023/04/21 05:51:09;;;;;;;228.32;71.53;;;;;;;8.70;100.00;101452.50;5028233;28;20052;-71
2023/04/21 05:53:35;;;;;;;181.90;68.50;;;;;;;8.72;100.00;101443.50;5008814;28;20037;-71
2023/04/21 05:56:00;;;;;;;169.27;63.92;;;;;;;8.73;100.00;101444.34;5005618;28;20026;-71
2023/04/21 05:58:26;;;;;;;160.30;62.25;;;;;;;8.82;100.00;101439.47;5015381;28;20042;-71
2023/04/21 06:00:51;;;;;;;157.50;62.45;;;;;;;8.82;100.00;101435.97;5021940;28;20582;-71
2023/04/21 06:03:17;;;;;;;174.23;64.85;;;;;;;8.93;100.00;101431.00;5017402;28;20037;-71
2023/04/21 06:05:42;;;;;;;144.15;58.45;;;;;;;8.95;100.00;101431.81;5020637;28;20606;-71
2023/04/21 06:08:08;;;;;;;138.55;58.20;;;;;;;8.93;100.00;101438.97;5020735;28;20034;-71
2023/04/21 06:10:33;;;;;;;140.40;60.55;;;;;;;8.94;100.00;101438.06;5011874;28;20097;-71
2023/04/21 06:12:59;;;;;;;139.70;58.05;;;;;;;8.96;100.00;101430.00;5018154;28;20038;-71
2023/04/21 06:15:24;;;;;;;131.13;57.63;;;;;;;9.06;100.00;101421.50;4997533;28;20133;-71
2023/04/21 06:17:54;;;;;;;125.30;56.95;;;;;;;9.08;100.00;101424.94;5013529;28;20038;-71
2023/04/21 06:20:19;;;;;;;140.85;60.97;;;;;;;9.25;100.00;101417.97;5013647;28;20045;-71
2023/04/21 06:22:45;;;;;;;141.52;58.83;;;;;;;9.34;100.00;101421.06;5002324;28;20080;-71
2023/04/21 06:25:11;;;;;;;140.30;59.58;;;;;;;9.37;100.00;101413.84;5009911;28;20840;-71
2023/04/21 06:27:36;;;;;;;124.97;54.58;;;;;;;9.49;100.00;101422.09;5018354;28;20282;-71
2023/04/21 06:30:02;;;;;;;145.80;62.58;;;;;;;9.64;100.00;101414.25;5029004;28;20501;-71
2023/04/21 06:32:28;;;;;;;117.63;54.45;;;;;;;9.70;100.00;101424.63;5008848;28;20533;-72
2023/04/21 06:34:53;;;;;;;145.07;62.55;;;;;;;9.81;100.00;101414.28;5025777;28;20026;-71
2023/04/21 06:37:19;;;;;;;137.80;61.42;;;;;;;9.82;100.00;101410.66;5025200;28;29895;-71
2023/04/21 06:39:44;;;;;;;142.32;61.70;;;;;;;9.82;100.00;101408.88;5025852;28;20877;-71
2023/04/21 06:42:10;;;;;;;117.93;58.35;;;;;;;9.96;100.00;101410.81;5021810;28;20037;-71
2023/04/21 06:44:41;;;;;;;117.32;58.05;;;;;;;10.41;100.00;101401.38;5014285;28;20153;-71
2023/04/21 06:47:06;;;;;;;114.63;56.10;;;;;;;10.61;100.00;101402.97;5021269;28;20045;-71
2023/04/21 06:49:33;;;;;;;106.43;55.50;;;;;;;10.72;100.00;101387.25;5007721;28;20115;-71
2023/04/21 06:51:58;;;;;;;101.80;52.13;;;;;;;10.69;100.00;101387.41;5015067;28;20030;-72
2023/04/21 06:54:24;;;;;;;108.28;53.90;;;;;;;10.53;100.00;101391.84;5012663;28;20037;-71
2023/04/21 06:56:50;;;;;;;100.22;53.60;;;;;;;10.48;100.00;101384.09;5028275;28;20030;-71
2023/04/21 06:59:15;;;;;;;96.03;51.33;;;;;;;10.63;100.00;101390.41;5020605;28;20030;-71
2023/04/21 07:01:41;;;;;;;92.13;50.47;;;;;;;10.55;100.00;101393.50;5005798;28;20694;-71
2023/04/21 07:04:08;;;;;;;106.25;56.13;;;;;;;10.67;100.00;101391.97;5028688;28;20053;-71
2023/04/21 07:06:34;;;;;;;103.47;53.25;;;;;;;10.46;100.00;101393.16;5002138;28;20049;-71
2023/04/21 07:08:59;;;;;;;108.60;56.03;;;;;;;10.54;100.00;101398.91;5024802;28;20030;-71
2023/04/21 07:11:27;;;;;;;108.75;54.20;;;;;;;10.46;100.00;101406.47;5018329;28;20038;-71
2023/04/21 07:13:53;;;;;;;103.38;54.25;;;;;;;10.35;100.00;101399.06;5026434;28;20049;-71
2023/04/21 07:16:18;;;;;;;97.28;50.92;;;;;;;10.48;100.00;101402.75;5007787;28;20407;-71
2023/04/21 07:18:44;;;;;;;99.60;50.15;;;;;;;10.49;100.00;101392.97;5011750;28;20936;-71
2023/04/21 07:21:10;;;;;;;98.03;53.03;;;;;;;10.35;100.00;101399.91;5011541;28;20115;-72
2023/04/21 07:23:35;;;;;;;110.78;56.55;;;;;;;10.52;100.00;101393.66;5026232;28;20579;-72
2023/04/21 07:26:01;;;;;;;95.70;52.28;;;;;;;10.58;100.00;101400.47;5023090;28;20110;-72
2023/04/21 07:28:26;;;;;;;100.30;52.47;;;;;;;10.45;100.00;101391.44;5010130;28;20489;-72
2023/04/21 07:30:51;;;;;;;100.40;51.55;;;;;;;10.62;100.00;101394.88;5017338;28;20037;-72
2023/04/21 07:33:17;;;;;;;96.20;50.22;;;;;;;10.49;100.00;101385.84;5019749;28;20038;-72
2023/04/21 07:35:43;;;;;;;83.50;47.88;;;;;;;10.63;100.00;101388.59;5014435;28;20045;-72
2023/04/21 07:38:09;;;;;;;90.18;49.35;;;;;;;10.60;100.00;101391.44;5019461;28;20084;-72
2023/04/21 07:40:34;;;;;;;99.30;52.10;;;;;;;10.72;100.00;101400.56;5024007;28;20064;-72
2023/04/21 07:43:00;;;;;;;96.78;51.17;;;;;;;10.69;100.00;101394.53;5007300;28;20091;-72
2023/04/21 07:45:25;;;;;;;105.65;53.63;;;;;;;10.74;100.00;101387.16;5019320;28;20058;-72
2023/04/21 07:47:51;;;;;;;102.20;53.20;;;;;;;10.63;100.00;101385.94;5019185;28;20038;-72
2023/04/21 07:50:17;;;;;;;99.03;51.75;;;;;;;10.82;100.00;101382.25;5020100;28;20037;-71
2023/04/21 07:52:42;;;;;;;98.00;50.90;;;;;;;10.65;100.00;101372.53;5026587;28;20038;-71
2023/04/21 07:55:08;;;;;;;90.03;50.88;;;;;;;10.73;100.00;101377.44;5027758;28;20639;-71
2023/04/21 07:57:37;;;;;;;96.75;50.83;;;;;;;10.50;100.00;101384.91;5027058;28;20033;-72
2023/04/21 08:00:05;;;;;;;91.93;49.75;;;;;;;10.78;100.00;101378.88;4993145;28;20038;-72
2023/04/21 08:02:38;;;;;;;92.32;50.35;;;;;;;10.67;100.00;101391.09;5009015;28;20089;-72
2023/04/21 08:05:04;;;;;;;87.40;49.42;;;;;;;10.57;100.00;101394.28;5020042;28;20076;-71
2023/04/21 08:07:30;;;;;;;95.65;50.72;;;;;;;10.54;100.00;101396.22;5011375;28;20040;-72
2023/04/21 08:09:56;;;;;;;100.82;53.53;;;;;;;10.57;100.00;101396.94;5014829;28;20049;-72
2023/04/21 08:12:21;;;;;;;95.43;51.25;;;;;;;10.86;100.00;101389.16;5021801;28;20044;-72
2023/04/21 08:14:47;;;;;;;96.97;50.70;;;;;;;10.99;100.00;101387.50;5007640;28;20030;-72
2023/04/21 08:17:12;;;;;;;86.95;50.00;;;;;;;10.95;100.00;101385.97;5003089;28;20038;-72
2023/04/21 08:19:38;;;;;;;82.78;47.97;;;;;;;11.04;100.00;101382.75;5015786;28;20037;-72
2023/04/21 08:22:04;;;;;;;94.00;50.42;;;;;;;11.30;100.00;101388.44;5010672;28;20840;-72
2023/04/21 08:24:30;;;;;;;84.30;48.55;;;;;;;11.32;100.00;101381.19;5004640;28;20056;-72
2023/04/21 08:26:56;;;;;;;85.90;48.53;;;;;;;11.38;100.00;101380.84;5024496;28;20213;-72
2023/04/21 08:29:22;;;;;;;84.72;47.60;;;;;;;11.70;100.00;101375.41;5011615;28;20034;-72
2023/04/21 08:31:48;;;;;;;80.80;47.35;;;;;;;11.58;100.00;101377.00;5021835;28;20034;-72
2023/04/21 08:34:13;;;;;;;84.18;48.25;;;;;;;11.72;100.00;101374.38;4999115;28;20044;-72
2023/04/21 08:36:40;;;;;;;81.90;46.08;;;;;;;11.63;100.00;101365.09;5032147;28;20849;-71
2023/04/21 08:39:06;;;;;;;83.38;49.80;;;;;;;12.13;100.00;101366.53;5028881;28;20661;-72
2023/04/21 08:41:33;;;;;;;78.22;45.63;;;;;;;11.74;100.00;101375.13;5025437;28;20038;-72
2023/04/21 08:43:58;;;;;;;74.75;43.70;;;;;;;11.85;100.00;101370.06;5022591;28;20768;-72
2023/04/21 08:46:27;;;;;;;74.97;44.97;;;;;;;12.03;100.00;101367.22;5019007;28;20838;-72
2023/04/21 08:48:52;;;;;;;71.13;42.63;;;;;;;11.79;100.00;101365.03;5013224;28;20143;-71
2023/04/21 08:51:22;;;;;;;80.30;45.20;;;;;;;12.20;100.00;101364.38;5012330;28;20046;-72
2023/04/21 08:53:48;;;;;;;76.05;44.75;;;;;;;12.12;100.00;101372.00;5017454;28;20037;-72
2023/04/21 08:56:14;;;;;;;76.85;45.17;;;;;;;12.54;100.00;101370.28;5003413;28;20030;-72
2023/04/21 08:58:40;;;;;;;69.18;43.50;;;;;;;12.53;100.00;101364.06;5015205;28;20029;-72
2023/04/21 09:01:06;;;;;;;68.35;43.05;;;;;;;13.04;100.00;101363.50;5000885;28;20046;-72
2023/04/21 09:03:34;;;;;;;68.47;43.20;;;;;;;12.88;100.00;101363.63;5001855;28;20040;-72
2023/04/21 09:06:05;;;;;;;67.00;41.80;;;;;;;12.85;100.00;101358.47;5017220;28;20064;-72
2023/04/21 09:08:32;;;;;;;64.07;41.65;;;;;;;12.75;100.00;101358.22;5016148;28;20041;-72
2023/04/21 09:11:00;;;;;;;64.13;41.95;;;;;;;12.71;100.00;101364.72;5004717;28;20041;-72
2023/04/21 09:13:30;;;;;;;64.20;40.22;;;;;;;12.64;100.00;101360.72;5009218;28;20333;-71
2023/04/21 09:15:55;;;;;;;67.38;41.28;;;;;;;12.83;100.00;101366.59;4994765;28;20089;-71
2023/04/21 09:18:23;;;;;;;62.83;40.05;;;;;;;12.74;100.00;101369.88;5024116;28;20043;-72
2023/04/21 09:20:51;;;;;;;59.88;38.92;;;;;;;12.80;100.00;101361.47;5024536;28;20041;-72
2023/04/21 09:23:19;;;;;;;61.78;38.97;;;;;;;12.62;100.00;101359.97;5016808;28;20143;-71
2023/04/21 09:25:45;;;;;;;63.33;37.70;;;;;;;12.72;100.00;101352.19;5002085;28;20168;-71
2023/04/21 09:28:12;;;;;;;63.83;38.53;;;;;;;12.99;100.00;101355.75;4998483;28;20636;-72
2023/04/21 09:30:41;;;;;;;63.22;39.20;;;;;;;12.72;100.00;101358.41;5020455;28;20034;-72
2023/04/21 09:33:19;;;;;;;58.53;38.00;;;;;;;12.63;100.00;101367.03;5006947;28;20034;-70
2023/04/21 09:35:46;;;;;;;62.10;38.92;;;;;;;12.99;100.00;101357.56;5007240;28;20034;-70
2023/04/21 09:38:12;;;;;;;60.50;38.53;;;;;;;12.80;100.00;101352.56;5025289;28;20068;-73
2023/04/21 09:40:39;;;;;;;58.33;37.53;;;;;;;13.20;100.00;101361.50;5018995;28;20036;-70
2023/04/21 09:43:05;;;;;;;56.30;38.20;;;;;;;13.11;100.00;101356.78;5019719;28;20029;-70
2023/04/21 09:45:32;;;;;;;56.60;37.50;;;;;;;13.02;100.00;101360.06;5011261;28;20507;-72
2023/04/21 09:48:02;;;;;;;60.20;39.08;;;;;;;13.28;100.00;101366.41;5009567;28;20275;-70
2023/04/21 09:50:29;;;;;;;61.80;38.55;;;;;;;13.35;100.00;101360.53;5016517;28;20034;-70
2023/04/21 09:52:55;;;;;;;58.15;38.63;;;;;;;13.86;100.00;101349.94;5007592;28;20021;-70
2023/04/21 09:55:27;;;;;;;61.75;38.20;;;;;;;13.58;100.00;101348.28;5017463;28;20034;-71
2023/04/21 09:57:57;;;;;;;58.08;38.40;;;;;;;13.52;100.00;101334.44;5025114;28;20037;-70
2023/04/21 10:00:27;;;;;;;65.20;38.20;;;;;;;13.20;100.00;101340.09;5011733;28;20535;-70
2023/04/21 10:02:53;;;;;;;53.97;36.00;;;;;;;13.64;100.00;101336.28;5010023;28;20029;-70
2023/04/21 10:05:19;;;;;;;58.00;37.83;;;;;;;14.10;100.00;101341.13;5015882;28;20044;-70
2023/04/21 10:07:47;;;;;;;59.38;37.35;;;;;;;14.12;100.00;101337.41;4992296;28;20064;-70
2023/04/21 10:10:33;;;;;;;56.40;38.20;;;;;;;13.58;100.00;101328.66;5020756;28;20115;-70
2023/04/21 10:12:59;;;;;;;58.65;37.63;;;;;;;13.77;100.00;101334.47;5017710;28;20037;-70
2023/04/21 10:15:37;;;;;;;54.97;36.88;;;;;;;13.82;100.00;101329.66;5019765;28;20029;-70
2023/04/21 10:18:21;;;;;;;58.42;36.45;;;;;;;13.64;100.00;101333.59;5023287;28;20037;-70
2023/04/21 10:20:54;;;;;;;54.95;35.67;;;;;;;13.75;100.00;101320.31;5020036;28;20872;-70
2023/04/21 10:23:43;;;;;;;55.92;35.83;;;;;;;13.38;100.00;101325.50;5024336;28;20035;-70
2023/04/21 10:26:21;;;;;;;54.80;36.03;;;;;;;13.49;100.00;101327.47;5013372;28;20107;-70
2023/04/21 10:28:56;;;;;;;53.80;34.45;;;;;;;13.55;100.00;101312.78;5008583;28;20033;-71
2023/04/21 10:31:53;;;;;;;52.28;35.13;;;;;;;14.78;100.00;101311.22;5028194;28;20150;-70
2023/04/21 10:34:27;;;;;;;53.05;34.38;;;;;;;14.37;100.00;101307.00;5025550;28;20095;-70
2023/04/21 10:36:52;;;;;;;59.65;35.38;;;;;;;14.10;100.00;101317.00;5029634;28;20890;-70
2023/04/21 10:39:30;;;;;;;52.45;35.47;;;;;;;13.83;100.00;101317.97;5020202;28;20045;-70
2023/04/21 10:41:57;;;;;;;54.45;32.58;;;;;;;13.69;100.00;101308.19;5020094;28;20034;-70
2023/04/21 10:44:23;;;;;;;53.28;34.95;;;;;;;13.90;100.00;101305.00;5018132;28;20087;-70
2023/04/21 10:46:51;;;;;;;48.95;32.72;;;;;;;14.69;100.00;101306.50;5000443;28;20108;-70
2023/04/21 10:49:20;;;;;;;56.75;35.75;;;;;;;14.17;100.00;101308.44;5018164;28;20034;-70
2023/04/21 10:51:58;;;;;;;50.25;33.63;;;;;;;14.67;100.00;101292.34;5017903;28;20084;-70
2023/04/21 10:54:42;;;;;;;51.15;33.25;;;;;;;14.55;100.00;101294.09;5002748;28;20317;-70
2023/04/21 10:57:16;;;;;;;52.00;34.13;;;;;;;14.46;100.00;101275.97;5024870;28;20041;-70
2023/04/21 10:59:43;;;;;;;53.88;34.25;;;;;;;15.10;100.00;101284.63;4998690;28;20041;-70